sensor_id;sensor_type;location;lat;lon;timestamp;P1;durP1;ratioP1;P2;durP2;ratioP2
14294;SDS011;7231;59.370;18.016;2023-02-25T00:01:16;3.23;;;1.50;;
14294;SDS011;7231;59.370;18.016;2023-02-25T00:03:45;5.40;;;2.23;;
14294;SDS011;7231;59.370;18.016;2023-02-25T00:06:13;3.60;;;1.50;;
14294;SDS011;7231;59.370;18.016;2023-02-25T00:08:42;2.23;;;1.27;;
14294;SDS011;7231;59.370;18.016;2023-02-25T00:11:11;4.07;;;1.87;;
14294;SDS011;7231;59.370;18.016;2023-02-25T00:13:40;3.73;;;2.03;;
14294;SDS011;7231;59.370;18.016;2023-02-25T00:16:09;5.53;;;2.00;;
14294;SDS011;7231;59.370;18.016;2023-02-25T00:18:38;2.87;;;1.70;;
14294;SDS011;7231;59.370;18.016;2023-02-25T00:21:11;3.37;;;1.70;;
14294;SDS011;7231;59.370;18.016;2023-02-25T00:23:41;4.73;;;1.83;;
14294;SDS011;7231;59.370;18.016;2023-02-25T00:26:11;3.23;;;1.77;;
14294;SDS011;7231;59.370;18.016;2023-02-25T00:28:40;2.60;;;1.50;;
14294;SDS011;7231;59.370;18.016;2023-02-25T00:31:09;3.57;;;2.20;;
14294;SDS011;7231;59.370;18.016;2023-02-25T00:33:38;2.17;;;1.80;;
14294;SDS011;7231;59.370;18.016;2023-02-25T00:36:08;4.10;;;2.50;;
14294;SDS011;7231;59.370;18.016;2023-02-25T00:38:38;6.00;;;2.10;;
14294;SDS011;7231;59.370;18.016;2023-02-25T00:41:06;4.20;;;2.20;;
14294;SDS011;7231;59.370;18.016;2023-02-25T00:43:37;3.40;;;1.90;;
14294;SDS011;7231;59.370;18.016;2023-02-25T00:46:07;3.70;;;2.27;;
14294;SDS011;7231;59.370;18.016;2023-02-25T00:48:35;4.77;;;2.33;;
14294;SDS011;7231;59.370;18.016;2023-02-25T00:51:04;4.23;;;2.50;;
14294;SDS011;7231;59.370;18.016;2023-02-25T00:53:34;3.33;;;2.10;;
14294;SDS011;7231;59.370;18.016;2023-02-25T00:56:05;3.63;;;2.23;;
14294;SDS011;7231;59.370;18.016;2023-02-25T00:58:34;4.43;;;2.63;;
14294;SDS011;7231;59.370;18.016;2023-02-25T01:01:03;5.00;;;2.50;;
14294;SDS011;7231;59.370;18.016;2023-02-25T01:03:32;5.13;;;2.50;;
14294;SDS011;7231;59.370;18.016;2023-02-25T01:06:00;5.03;;;3.27;;
14294;SDS011;7231;59.370;18.016;2023-02-25T01:08:28;5.20;;;2.80;;
14294;SDS011;7231;59.370;18.016;2023-02-25T01:10:56;3.90;;;3.00;;
14294;SDS011;7231;59.370;18.016;2023-02-25T01:13:25;4.37;;;2.60;;
14294;SDS011;7231;59.370;18.016;2023-02-25T01:15:53;5.77;;;2.70;;
14294;SDS011;7231;59.370;18.016;2023-02-25T01:18:21;4.63;;;2.90;;
14294;SDS011;7231;59.370;18.016;2023-02-25T01:20:49;6.20;;;3.30;;
14294;SDS011;7231;59.370;18.016;2023-02-25T01:23:17;5.77;;;2.60;;
14294;SDS011;7231;59.370;18.016;2023-02-25T01:25:45;5.57;;;2.83;;
14294;SDS011;7231;59.370;18.016;2023-02-25T01:28:14;6.30;;;3.00;;
14294;SDS011;7231;59.370;18.016;2023-02-25T01:30:43;5.07;;;3.37;;
14294;SDS011;7231;59.370;18.016;2023-02-25T01:33:12;5.87;;;3.00;;
14294;SDS011;7231;59.370;18.016;2023-02-25T01:35:40;8.73;;;3.50;;
14294;SDS011;7231;59.370;18.016;2023-02-25T01:38:08;9.07;;;3.70;;
14294;SDS011;7231;59.370;18.016;2023-02-25T01:40:36;5.33;;;3.50;;
14294;SDS011;7231;59.370;18.016;2023-02-25T01:43:04;8.80;;;3.93;;
14294;SDS011;7231;59.370;18.016;2023-02-25T01:45:33;9.43;;;4.50;;
14294;SDS011;7231;59.370;18.016;2023-02-25T01:48:07;6.23;;;3.93;;
14294;SDS011;7231;59.370;18.016;2023-02-25T01:50:40;11.60;;;3.90;;
14294;SDS011;7231;59.370;18.016;2023-02-25T01:53:12;8.03;;;4.50;;
14294;SDS011;7231;59.370;18.016;2023-02-25T01:55:42;7.07;;;4.33;;
14294;SDS011;7231;59.370;18.016;2023-02-25T01:58:10;9.63;;;4.07;;
14294;SDS011;7231;59.370;18.016;2023-02-25T02:00:39;7.47;;;4.30;;
14294;SDS011;7231;59.370;18.016;2023-02-25T02:03:09;8.53;;;4.57;;
14294;SDS011;7231;59.370;18.016;2023-02-25T02:05:44;8.57;;;4.50;;
14294;SDS011;7231;59.370;18.016;2023-02-25T02:08:21;7.23;;;3.93;;
14294;SDS011;7231;59.370;18.016;2023-02-25T02:10:51;6.73;;;3.53;;
14294;SDS011;7231;59.370;18.016;2023-02-25T02:13:20;7.97;;;3.53;;
14294;SDS011;7231;59.370;18.016;2023-02-25T02:15:51;6.17;;;3.27;;
14294;SDS011;7231;59.370;18.016;2023-02-25T02:18:29;8.00;;;3.37;;
14294;SDS011;7231;59.370;18.016;2023-02-25T02:21:04;6.17;;;3.10;;
14294;SDS011;7231;59.370;18.016;2023-02-25T02:23:47;5.77;;;3.10;;
14294;SDS011;7231;59.370;18.016;2023-02-25T02:26:42;5.30;;;2.90;;
14294;SDS011;7231;59.370;18.016;2023-02-25T02:32:29;6.23;;;2.63;;
14294;SDS011;7231;59.370;18.016;2023-02-25T02:35:05;5.37;;;2.70;;
14294;SDS011;7231;59.370;18.016;2023-02-25T02:37:42;5.93;;;2.30;;
14294;SDS011;7231;59.370;18.016;2023-02-25T02:40:20;4.37;;;2.40;;
14294;SDS011;7231;59.370;18.016;2023-02-25T02:43:02;6.27;;;2.60;;
14294;SDS011;7231;59.370;18.016;2023-02-25T02:45:38;4.10;;;2.10;;
14294;SDS011;7231;59.370;18.016;2023-02-25T02:48:16;4.60;;;2.10;;
14294;SDS011;7231;59.370;18.016;2023-02-25T02:50:49;6.83;;;2.57;;
14294;SDS011;7231;59.370;18.016;2023-02-25T02:53:23;5.53;;;2.20;;
14294;SDS011;7231;59.370;18.016;2023-02-25T02:55:54;4.93;;;2.93;;
14294;SDS011;7231;59.370;18.016;2023-02-25T02:58:27;4.10;;;1.73;;
14294;SDS011;7231;59.370;18.016;2023-02-25T03:01:00;2.63;;;1.70;;
14294;SDS011;7231;59.370;18.016;2023-02-25T03:03:34;5.47;;;2.13;;
14294;SDS011;7231;59.370;18.016;2023-02-25T03:06:06;4.87;;;2.00;;
14294;SDS011;7231;59.370;18.016;2023-02-25T03:08:39;4.13;;;1.67;;
14294;SDS011;7231;59.370;18.016;2023-02-25T03:11:11;3.30;;;1.50;;
14294;SDS011;7231;59.370;18.016;2023-02-25T03:13:39;3.23;;;1.60;;
14294;SDS011;7231;59.370;18.016;2023-02-25T03:16:11;5.00;;;1.70;;
14294;SDS011;7231;59.370;18.016;2023-02-25T03:18:48;5.23;;;1.60;;
14294;SDS011;7231;59.370;18.016;2023-02-25T03:21:22;5.43;;;1.30;;
14294;SDS011;7231;59.370;18.016;2023-02-25T03:23:55;2.47;;;1.57;;
14294;SDS011;7231;59.370;18.016;2023-02-25T03:26:25;3.53;;;1.53;;
14294;SDS011;7231;59.370;18.016;2023-02-25T03:28:56;3.03;;;1.10;;
14294;SDS011;7231;59.370;18.016;2023-02-25T03:31:26;4.97;;;1.23;;
14294;SDS011;7231;59.370;18.016;2023-02-25T03:34:00;3.57;;;1.00;;
14294;SDS011;7231;59.370;18.016;2023-02-25T03:36:33;1.60;;;0.90;;
14294;SDS011;7231;59.370;18.016;2023-02-25T03:39:05;2.63;;;0.80;;
14294;SDS011;7231;59.370;18.016;2023-02-25T03:41:37;2.00;;;0.73;;
14294;SDS011;7231;59.370;18.016;2023-02-25T03:44:08;3.00;;;1.00;;
14294;SDS011;7231;59.370;18.016;2023-02-25T03:46:42;1.20;;;0.77;;
14294;SDS011;7231;59.370;18.016;2023-02-25T03:49:15;4.37;;;0.70;;
14294;SDS011;7231;59.370;18.016;2023-02-25T03:51:47;1.27;;;0.60;;
14294;SDS011;7231;59.370;18.016;2023-02-25T03:54:16;2.97;;;0.53;;
14294;SDS011;7231;59.370;18.016;2023-02-25T03:56:46;1.93;;;0.50;;
14294;SDS011;7231;59.370;18.016;2023-02-25T03:59:15;0.50;;;0.43;;
14294;SDS011;7231;59.370;18.016;2023-02-25T04:01:46;2.50;;;0.50;;
14294;SDS011;7231;59.370;18.016;2023-02-25T04:04:18;1.53;;;0.50;;
14294;SDS011;7231;59.370;18.016;2023-02-25T04:06:46;3.20;;;0.50;;
14294;SDS011;7231;59.370;18.016;2023-02-25T04:09:14;1.70;;;0.40;;
14294;SDS011;7231;59.370;18.016;2023-02-25T04:11:41;3.40;;;0.53;;
14294;SDS011;7231;59.370;18.016;2023-02-25T04:14:09;1.33;;;0.43;;
14294;SDS011;7231;59.370;18.016;2023-02-25T04:16:37;4.80;;;0.57;;
14294;SDS011;7231;59.370;18.016;2023-02-25T04:19:05;1.10;;;0.40;;
14294;SDS011;7231;59.370;18.016;2023-02-25T04:21:35;1.20;;;0.33;;
14294;SDS011;7231;59.370;18.016;2023-02-25T04:24:05;2.17;;;0.50;;
14294;SDS011;7231;59.370;18.016;2023-02-25T04:26:34;2.00;;;0.50;;
14294;SDS011;7231;59.370;18.016;2023-02-25T04:29:02;3.47;;;0.60;;
14294;SDS011;7231;59.370;18.016;2023-02-25T04:31:30;0.83;;;0.50;;
14294;SDS011;7231;59.370;18.016;2023-02-25T04:33:59;0.80;;;0.47;;
14294;SDS011;7231;59.370;18.016;2023-02-25T04:36:28;1.23;;;0.60;;
14294;SDS011;7231;59.370;18.016;2023-02-25T04:38:59;2.10;;;0.53;;
14294;SDS011;7231;59.370;18.016;2023-02-25T04:41:30;1.33;;;0.50;;
14294;SDS011;7231;59.370;18.016;2023-02-25T04:44:00;3.00;;;0.70;;
14294;SDS011;7231;59.370;18.016;2023-02-25T04:46:30;1.60;;;0.40;;
14294;SDS011;7231;59.370;18.016;2023-02-25T04:48:58;0.73;;;0.43;;
14294;SDS011;7231;59.370;18.016;2023-02-25T04:51:27;0.87;;;0.60;;
14294;SDS011;7231;59.370;18.016;2023-02-25T04:53:55;2.00;;;0.60;;
14294;SDS011;7231;59.370;18.016;2023-02-25T04:56:24;1.33;;;0.90;;
14294;SDS011;7231;59.370;18.016;2023-02-25T04:58:53;2.93;;;0.60;;
14294;SDS011;7231;59.370;18.016;2023-02-25T05:01:20;2.80;;;0.50;;
14294;SDS011;7231;59.370;18.016;2023-02-25T05:03:48;1.77;;;0.60;;
14294;SDS011;7231;59.370;18.016;2023-02-25T05:06:22;3.50;;;0.50;;
14294;SDS011;7231;59.370;18.016;2023-02-25T05:08:51;2.27;;;0.50;;
14294;SDS011;7231;59.370;18.016;2023-02-25T05:11:19;3.90;;;0.70;;
14294;SDS011;7231;59.370;18.016;2023-02-25T05:13:49;3.90;;;0.67;;
14294;SDS011;7231;59.370;18.016;2023-02-25T05:16:17;1.03;;;0.50;;
14294;SDS011;7231;59.370;18.016;2023-02-25T05:18:46;2.73;;;0.60;;
14294;SDS011;7231;59.370;18.016;2023-02-25T05:21:15;3.83;;;0.73;;
14294;SDS011;7231;59.370;18.016;2023-02-25T05:23:44;2.33;;;0.60;;
14294;SDS011;7231;59.370;18.016;2023-02-25T05:26:14;1.20;;;0.80;;
14294;SDS011;7231;59.370;18.016;2023-02-25T05:28:49;1.50;;;0.67;;
14294;SDS011;7231;59.370;18.016;2023-02-25T05:31:17;2.70;;;0.63;;
14294;SDS011;7231;59.370;18.016;2023-02-25T05:33:46;2.70;;;1.00;;
14294;SDS011;7231;59.370;18.016;2023-02-25T05:36:14;1.40;;;0.50;;
14294;SDS011;7231;59.370;18.016;2023-02-25T05:38:43;2.07;;;0.60;;
14294;SDS011;7231;59.370;18.016;2023-02-25T05:41:12;2.20;;;0.53;;
14294;SDS011;7231;59.370;18.016;2023-02-25T05:43:40;2.03;;;0.70;;
14294;SDS011;7231;59.370;18.016;2023-02-25T05:46:12;2.17;;;0.70;;
14294;SDS011;7231;59.370;18.016;2023-02-25T05:48:41;2.77;;;0.70;;
14294;SDS011;7231;59.370;18.016;2023-02-25T05:51:13;6.73;;;0.70;;
14294;SDS011;7231;59.370;18.016;2023-02-25T05:53:42;3.87;;;0.60;;
14294;SDS011;7231;59.370;18.016;2023-02-25T05:56:11;5.40;;;0.73;;
14294;SDS011;7231;59.370;18.016;2023-02-25T05:58:41;2.77;;;0.50;;
14294;SDS011;7231;59.370;18.016;2023-02-25T06:01:09;1.23;;;0.50;;
14294;SDS011;7231;59.370;18.016;2023-02-25T06:03:41;2.00;;;0.53;;
14294;SDS011;7231;59.370;18.016;2023-02-25T06:06:10;4.50;;;0.63;;
14294;SDS011;7231;59.370;18.016;2023-02-25T06:08:40;3.60;;;0.70;;
14294;SDS011;7231;59.370;18.016;2023-02-25T06:11:10;3.17;;;0.57;;
14294;SDS011;7231;59.370;18.016;2023-02-25T06:13:40;3.73;;;0.60;;
14294;SDS011;7231;59.370;18.016;2023-02-25T06:16:08;3.23;;;0.53;;
14294;SDS011;7231;59.370;18.016;2023-02-25T06:18:36;1.37;;;0.53;;
14294;SDS011;7231;59.370;18.016;2023-02-25T06:21:07;2.87;;;0.60;;
14294;SDS011;7231;59.370;18.016;2023-02-25T06:23:37;1.60;;;0.50;;
14294;SDS011;7231;59.370;18.016;2023-02-25T06:26:06;3.70;;;0.70;;
14294;SDS011;7231;59.370;18.016;2023-02-25T06:28:35;2.67;;;0.60;;
14294;SDS011;7231;59.370;18.016;2023-02-25T06:31:05;3.07;;;0.80;;
14294;SDS011;7231;59.370;18.016;2023-02-25T06:33:34;1.90;;;0.60;;
14294;SDS011;7231;59.370;18.016;2023-02-25T06:36:02;0.90;;;0.60;;
14294;SDS011;7231;59.370;18.016;2023-02-25T06:38:32;1.57;;;0.50;;
14294;SDS011;7231;59.370;18.016;2023-02-25T06:41:04;5.97;;;1.00;;
14294;SDS011;7231;59.370;18.016;2023-02-25T06:43:32;2.90;;;0.50;;
14294;SDS011;7231;59.370;18.016;2023-02-25T06:46:02;0.73;;;0.43;;
14294;SDS011;7231;59.370;18.016;2023-02-25T06:48:32;4.63;;;0.60;;
14294;SDS011;7231;59.370;18.016;2023-02-25T06:51:00;2.50;;;0.53;;
14294;SDS011;7231;59.370;18.016;2023-02-25T06:53:28;3.30;;;0.93;;
14294;SDS011;7231;59.370;18.016;2023-02-25T06:55:58;5.23;;;1.00;;
14294;SDS011;7231;59.370;18.016;2023-02-25T06:58:26;4.30;;;1.03;;
14294;SDS011;7231;59.370;18.016;2023-02-25T07:00:53;2.93;;;0.80;;
14294;SDS011;7231;59.370;18.016;2023-02-25T07:03:22;2.73;;;0.50;;
14294;SDS011;7231;59.370;18.016;2023-02-25T07:05:49;1.90;;;0.63;;
14294;SDS011;7231;59.370;18.016;2023-02-25T07:08:17;2.67;;;0.70;;
14294;SDS011;7231;59.370;18.016;2023-02-25T07:10:45;1.67;;;0.80;;
14294;SDS011;7231;59.370;18.016;2023-02-25T07:13:15;1.23;;;0.43;;
14294;SDS011;7231;59.370;18.016;2023-02-25T07:15:42;2.87;;;0.77;;
14294;SDS011;7231;59.370;18.016;2023-02-25T07:18:10;2.73;;;0.53;;
14294;SDS011;7231;59.370;18.016;2023-02-25T07:20:38;2.37;;;0.70;;
14294;SDS011;7231;59.370;18.016;2023-02-25T07:23:06;2.67;;;0.80;;
14294;SDS011;7231;59.370;18.016;2023-02-25T07:25:35;1.53;;;0.60;;
14294;SDS011;7231;59.370;18.016;2023-02-25T07:28:04;3.73;;;0.80;;
14294;SDS011;7231;59.370;18.016;2023-02-25T07:30:34;2.53;;;0.60;;
14294;SDS011;7231;59.370;18.016;2023-02-25T07:33:02;5.50;;;0.80;;
14294;SDS011;7231;59.370;18.016;2023-02-25T07:35:31;5.47;;;0.90;;
14294;SDS011;7231;59.370;18.016;2023-02-25T07:38:00;3.43;;;1.07;;
14294;SDS011;7231;59.370;18.016;2023-02-25T07:40:28;3.60;;;0.80;;
14294;SDS011;7231;59.370;18.016;2023-02-25T07:42:55;2.33;;;0.77;;
14294;SDS011;7231;59.370;18.016;2023-02-25T07:45:23;4.80;;;0.93;;
14294;SDS011;7231;59.370;18.016;2023-02-25T07:47:53;4.30;;;0.87;;
14294;SDS011;7231;59.370;18.016;2023-02-25T07:50:21;3.23;;;1.13;;
14294;SDS011;7231;59.370;18.016;2023-02-25T07:52:49;4.53;;;0.90;;
14294;SDS011;7231;59.370;18.016;2023-02-25T07:55:17;5.20;;;0.83;;
14294;SDS011;7231;59.370;18.016;2023-02-25T07:57:44;3.70;;;0.70;;
14294;SDS011;7231;59.370;18.016;2023-02-25T08:00:13;4.33;;;0.93;;
14294;SDS011;7231;59.370;18.016;2023-02-25T08:02:42;4.13;;;1.00;;
14294;SDS011;7231;59.370;18.016;2023-02-25T08:05:11;4.23;;;0.70;;
14294;SDS011;7231;59.370;18.016;2023-02-25T08:07:39;2.57;;;0.67;;
14294;SDS011;7231;59.370;18.016;2023-02-25T08:10:08;1.53;;;0.53;;
14294;SDS011;7231;59.370;18.016;2023-02-25T08:12:36;2.50;;;0.83;;
14294;SDS011;7231;59.370;18.016;2023-02-25T08:15:05;3.57;;;0.90;;
14294;SDS011;7231;59.370;18.016;2023-02-25T08:17:33;5.20;;;1.10;;
14294;SDS011;7231;59.370;18.016;2023-02-25T08:20:01;3.40;;;1.00;;
14294;SDS011;7231;59.370;18.016;2023-02-25T08:22:31;4.13;;;1.10;;
14294;SDS011;7231;59.370;18.016;2023-02-25T08:24:59;1.80;;;0.80;;
14294;SDS011;7231;59.370;18.016;2023-02-25T08:27:27;4.00;;;0.80;;
14294;SDS011;7231;59.370;18.016;2023-02-25T08:29:56;5.97;;;1.47;;
14294;SDS011;7231;59.370;18.016;2023-02-25T08:32:24;5.67;;;1.47;;
14294;SDS011;7231;59.370;18.016;2023-02-25T08:34:53;6.60;;;1.00;;
14294;SDS011;7231;59.370;18.016;2023-02-25T08:37:21;3.57;;;0.73;;
14294;SDS011;7231;59.370;18.016;2023-02-25T08:39:54;2.73;;;0.90;;
14294;SDS011;7231;59.370;18.016;2023-02-25T08:42:22;4.00;;;1.07;;
14294;SDS011;7231;59.370;18.016;2023-02-25T08:44:50;5.07;;;1.33;;
14294;SDS011;7231;59.370;18.016;2023-02-25T08:47:18;2.93;;;1.00;;
14294;SDS011;7231;59.370;18.016;2023-02-25T08:49:46;4.07;;;0.90;;
14294;SDS011;7231;59.370;18.016;2023-02-25T08:52:14;6.23;;;0.90;;
14294;SDS011;7231;59.370;18.016;2023-02-25T08:54:42;4.70;;;1.00;;
14294;SDS011;7231;59.370;18.016;2023-02-25T08:57:11;4.23;;;1.20;;
14294;SDS011;7231;59.370;18.016;2023-02-25T08:59:39;3.83;;;0.90;;
14294;SDS011;7231;59.370;18.016;2023-02-25T09:02:09;4.93;;;0.93;;
14294;SDS011;7231;59.370;18.016;2023-02-25T09:04:40;4.57;;;1.20;;
14294;SDS011;7231;59.370;18.016;2023-02-25T09:07:08;2.93;;;0.90;;
14294;SDS011;7231;59.370;18.016;2023-02-25T09:09:39;3.10;;;1.13;;
14294;SDS011;7231;59.370;18.016;2023-02-25T09:12:07;3.77;;;1.17;;
14294;SDS011;7231;59.370;18.016;2023-02-25T09:14:37;2.67;;;0.67;;
14294;SDS011;7231;59.370;18.016;2023-02-25T09:17:05;5.00;;;0.93;;
14294;SDS011;7231;59.370;18.016;2023-02-25T09:19:33;3.63;;;1.00;;
14294;SDS011;7231;59.370;18.016;2023-02-25T09:22:03;1.17;;;0.60;;
14294;SDS011;7231;59.370;18.016;2023-02-25T09:24:32;3.70;;;0.87;;
14294;SDS011;7231;59.370;18.016;2023-02-25T09:27:01;3.20;;;0.83;;
14294;SDS011;7231;59.370;18.016;2023-02-25T09:29:33;5.53;;;1.00;;
14294;SDS011;7231;59.370;18.016;2023-02-25T09:32:03;3.23;;;0.97;;
14294;SDS011;7231;59.370;18.016;2023-02-25T09:34:31;3.40;;;0.90;;
14294;SDS011;7231;59.370;18.016;2023-02-25T09:37:02;4.57;;;1.27;;
14294;SDS011;7231;59.370;18.016;2023-02-25T09:39:30;4.67;;;1.10;;
14294;SDS011;7231;59.370;18.016;2023-02-25T09:41:59;3.83;;;1.10;;
14294;SDS011;7231;59.370;18.016;2023-02-25T09:44:35;4.07;;;0.93;;
14294;SDS011;7231;59.370;18.016;2023-02-25T09:47:09;4.03;;;0.97;;
14294;SDS011;7231;59.370;18.016;2023-02-25T09:49:43;2.60;;;0.80;;
14294;SDS011;7231;59.370;18.016;2023-02-25T09:52:15;4.27;;;1.13;;
14294;SDS011;7231;59.370;18.016;2023-02-25T09:54:48;4.60;;;1.20;;
14294;SDS011;7231;59.370;18.016;2023-02-25T09:57:21;4.23;;;1.00;;
14294;SDS011;7231;59.370;18.016;2023-02-25T09:59:50;2.97;;;0.90;;
14294;SDS011;7231;59.370;18.016;2023-02-25T10:02:26;3.03;;;1.10;;
14294;SDS011;7231;59.370;18.016;2023-02-25T10:05:06;4.37;;;1.10;;
14294;SDS011;7231;59.370;18.016;2023-02-25T10:08:00;3.73;;;1.00;;
14294;SDS011;7231;59.370;18.016;2023-02-25T10:10:37;4.43;;;0.90;;
14294;SDS011;7231;59.370;18.016;2023-02-25T10:13:18;1.87;;;0.70;;
14294;SDS011;7231;59.370;18.016;2023-02-25T10:15:54;4.03;;;0.80;;
14294;SDS011;7231;59.370;18.016;2023-02-25T10:18:46;6.90;;;1.13;;
14294;SDS011;7231;59.370;18.016;2023-02-25T10:21:31;2.83;;;0.87;;
14294;SDS011;7231;59.370;18.016;2023-02-25T10:24:12;1.20;;;0.63;;
14294;SDS011;7231;59.370;18.016;2023-02-25T10:26:49;3.57;;;0.70;;
14294;SDS011;7231;59.370;18.016;2023-02-25T10:29:25;2.93;;;0.90;;
14294;SDS011;7231;59.370;18.016;2023-02-25T10:31:58;5.23;;;0.90;;
14294;SDS011;7231;59.370;18.016;2023-02-25T10:34:28;2.47;;;1.00;;
14294;SDS011;7231;59.370;18.016;2023-02-25T10:36:59;1.80;;;0.63;;
14294;SDS011;7231;59.370;18.016;2023-02-25T10:39:27;4.23;;;0.97;;
14294;SDS011;7231;59.370;18.016;2023-02-25T10:41:56;4.73;;;0.87;;
14294;SDS011;7231;59.370;18.016;2023-02-25T10:44:24;5.37;;;1.00;;
14294;SDS011;7231;59.370;18.016;2023-02-25T10:46:53;5.90;;;0.97;;
14294;SDS011;7231;59.370;18.016;2023-02-25T10:49:28;3.10;;;1.03;;
14294;SDS011;7231;59.370;18.016;2023-02-25T10:52:04;3.87;;;0.90;;
14294;SDS011;7231;59.370;18.016;2023-02-25T10:54:43;3.47;;;1.07;;
14294;SDS011;7231;59.370;18.016;2023-02-25T10:57:12;3.83;;;0.93;;
14294;SDS011;7231;59.370;18.016;2023-02-25T10:59:42;4.67;;;1.00;;
14294;SDS011;7231;59.370;18.016;2023-02-25T11:02:17;4.47;;;1.10;;
14294;SDS011;7231;59.370;18.016;2023-02-25T11:04:50;5.83;;;1.03;;
14294;SDS011;7231;59.370;18.016;2023-02-25T11:07:23;5.80;;;1.27;;
14294;SDS011;7231;59.370;18.016;2023-02-25T11:10:04;4.70;;;1.33;;
14294;SDS011;7231;59.370;18.016;2023-02-25T11:12:39;2.40;;;0.67;;
14294;SDS011;7231;59.370;18.016;2023-02-25T11:18:23;3.00;;;0.80;;
14294;SDS011;7231;59.370;18.016;2023-02-25T11:20:57;3.77;;;1.00;;
14294;SDS011;7231;59.370;18.016;2023-02-25T11:23:29;3.60;;;1.17;;
14294;SDS011;7231;59.370;18.016;2023-02-25T11:25:59;5.53;;;1.00;;
14294;SDS011;7231;59.370;18.016;2023-02-25T11:28:28;4.33;;;0.97;;
14294;SDS011;7231;59.370;18.016;2023-02-25T11:31:06;2.03;;;1.10;;
14294;SDS011;7231;59.370;18.016;2023-02-25T11:33:37;1.67;;;0.67;;
14294;SDS011;7231;59.370;18.016;2023-02-25T11:36:10;3.77;;;0.70;;
14294;SDS011;7231;59.370;18.016;2023-02-25T11:38:40;5.57;;;1.07;;
14294;SDS011;7231;59.370;18.016;2023-02-25T11:41:15;2.33;;;0.70;;
14294;SDS011;7231;59.370;18.016;2023-02-25T11:43:48;5.50;;;0.90;;
14294;SDS011;7231;59.370;18.016;2023-02-25T11:46:17;4.07;;;0.90;;
14294;SDS011;7231;59.370;18.016;2023-02-25T11:48:49;3.03;;;0.80;;
14294;SDS011;7231;59.370;18.016;2023-02-25T11:51:25;4.17;;;0.97;;
14294;SDS011;7231;59.370;18.016;2023-02-25T11:54:03;3.07;;;0.83;;
14294;SDS011;7231;59.370;18.016;2023-02-25T11:56:44;3.03;;;0.90;;
14294;SDS011;7231;59.370;18.016;2023-02-25T11:59:19;4.93;;;0.83;;
14294;SDS011;7231;59.370;18.016;2023-02-25T12:08:06;4.47;;;1.00;;
14294;SDS011;7231;59.370;18.016;2023-02-25T12:10:52;4.57;;;1.10;;
14294;SDS011;7231;59.370;18.016;2023-02-25T12:13:52;2.37;;;0.93;;
14294;SDS011;7231;59.370;18.016;2023-02-25T12:16:54;5.23;;;0.90;;
14294;SDS011;7231;59.370;18.016;2023-02-25T12:19:49;2.30;;;0.80;;
14294;SDS011;7231;59.370;18.016;2023-02-25T12:26:03;3.93;;;1.10;;
14294;SDS011;7231;59.370;18.016;2023-02-25T12:28:42;4.23;;;1.10;;
14294;SDS011;7231;59.370;18.016;2023-02-25T12:35:04;3.13;;;0.80;;
14294;SDS011;7231;59.370;18.016;2023-02-25T12:37:58;3.73;;;0.70;;
14294;SDS011;7231;59.370;18.016;2023-02-25T12:40:59;4.57;;;0.83;;
14294;SDS011;7231;59.370;18.016;2023-02-25T12:43:43;3.77;;;0.97;;
14294;SDS011;7231;59.370;18.016;2023-02-25T12:46:26;2.13;;;0.70;;
14294;SDS011;7231;59.370;18.016;2023-02-25T12:49:18;5.20;;;0.80;;
14294;SDS011;7231;59.370;18.016;2023-02-25T12:52:12;3.90;;;0.97;;
14294;SDS011;7231;59.370;18.016;2023-02-25T12:55:14;4.47;;;1.00;;
14294;SDS011;7231;59.370;18.016;2023-02-25T12:57:53;3.60;;;1.07;;
14294;SDS011;7231;59.370;18.016;2023-02-25T13:06:47;4.37;;;1.27;;
14294;SDS011;7231;59.370;18.016;2023-02-25T13:09:38;3.83;;;1.07;;
14294;SDS011;7231;59.370;18.016;2023-02-25T13:12:20;3.90;;;1.20;;
14294;SDS011;7231;59.370;18.016;2023-02-25T13:15:03;3.40;;;1.00;;
14294;SDS011;7231;59.370;18.016;2023-02-25T13:17:38;4.77;;;1.10;;
14294;SDS011;7231;59.370;18.016;2023-02-25T13:20:25;6.07;;;1.10;;
14294;SDS011;7231;59.370;18.016;2023-02-25T13:23:15;4.30;;;0.90;;
14294;SDS011;7231;59.370;18.016;2023-02-25T13:25:57;5.63;;;1.10;;
14294;SDS011;7231;59.370;18.016;2023-02-25T13:28:49;7.07;;;1.53;;
14294;SDS011;7231;59.370;18.016;2023-02-25T13:31:49;2.80;;;0.87;;
14294;SDS011;7231;59.370;18.016;2023-02-25T13:34:27;2.83;;;0.80;;
14294;SDS011;7231;59.370;18.016;2023-02-25T13:40:10;3.63;;;0.80;;
14294;SDS011;7231;59.370;18.016;2023-02-25T13:43:03;5.00;;;1.10;;
14294;SDS011;7231;59.370;18.016;2023-02-25T13:48:37;4.03;;;1.00;;
14294;SDS011;7231;59.370;18.016;2023-02-25T13:51:22;5.23;;;1.57;;
14294;SDS011;7231;59.370;18.016;2023-02-25T13:54:25;2.70;;;0.90;;
14294;SDS011;7231;59.370;18.016;2023-02-25T13:57:06;4.23;;;1.00;;
14294;SDS011;7231;59.370;18.016;2023-02-25T13:59:54;5.70;;;1.27;;
14294;SDS011;7231;59.370;18.016;2023-02-25T14:02:38;4.00;;;1.27;;
14294;SDS011;7231;59.370;18.016;2023-02-25T14:05:28;2.60;;;0.97;;
14294;SDS011;7231;59.370;18.016;2023-02-25T14:08:23;4.93;;;1.00;;
14294;SDS011;7231;59.370;18.016;2023-02-25T14:11:09;4.17;;;0.90;;
14294;SDS011;7231;59.370;18.016;2023-02-25T14:17:03;8.97;;;1.27;;
14294;SDS011;7231;59.370;18.016;2023-02-25T14:19:51;3.57;;;1.20;;
14294;SDS011;7231;59.370;18.016;2023-02-25T14:22:35;6.60;;;1.30;;
14294;SDS011;7231;59.370;18.016;2023-02-25T14:25:17;2.53;;;0.87;;
14294;SDS011;7231;59.370;18.016;2023-02-25T14:27:58;3.73;;;0.93;;
14294;SDS011;7231;59.370;18.016;2023-02-25T14:30:36;3.33;;;0.90;;
14294;SDS011;7231;59.370;18.016;2023-02-25T14:33:23;5.40;;;1.13;;
14294;SDS011;7231;59.370;18.016;2023-02-25T14:39:03;3.57;;;1.30;;
14294;SDS011;7231;59.370;18.016;2023-02-25T14:41:51;3.80;;;1.20;;
14294;SDS011;7231;59.370;18.016;2023-02-25T14:44:31;4.17;;;0.70;;
14294;SDS011;7231;59.370;18.016;2023-02-25T14:47:06;3.47;;;0.77;;
14294;SDS011;7231;59.370;18.016;2023-02-25T14:49:38;4.97;;;0.97;;
14294;SDS011;7231;59.370;18.016;2023-02-25T14:52:16;2.47;;;0.77;;
14294;SDS011;7231;59.370;18.016;2023-02-25T14:55:11;2.33;;;0.70;;
14294;SDS011;7231;59.370;18.016;2023-02-25T15:00:50;3.27;;;0.90;;
14294;SDS011;7231;59.370;18.016;2023-02-25T15:03:35;2.50;;;0.57;;
14294;SDS011;7231;59.370;18.016;2023-02-25T15:06:29;3.60;;;0.67;;
14294;SDS011;7231;59.370;18.016;2023-02-25T15:09:16;3.57;;;0.80;;
14294;SDS011;7231;59.370;18.016;2023-02-25T15:12:03;5.53;;;1.13;;
14294;SDS011;7231;59.370;18.016;2023-02-25T15:14:40;2.53;;;1.30;;
14294;SDS011;7231;59.370;18.016;2023-02-25T15:17:32;2.43;;;0.73;;
14294;SDS011;7231;59.370;18.016;2023-02-25T15:20:28;5.40;;;1.03;;
14294;SDS011;7231;59.370;18.016;2023-02-25T15:23:03;1.50;;;0.90;;
14294;SDS011;7231;59.370;18.016;2023-02-25T15:25:37;1.57;;;0.60;;
14294;SDS011;7231;59.370;18.016;2023-02-25T15:31:10;1.67;;;0.70;;
14294;SDS011;7231;59.370;18.016;2023-02-25T15:34:07;1.53;;;0.60;;
14294;SDS011;7231;59.370;18.016;2023-02-25T15:37:10;3.77;;;0.70;;
14294;SDS011;7231;59.370;18.016;2023-02-25T15:39:46;3.37;;;0.90;;
14294;SDS011;7231;59.370;18.016;2023-02-25T15:42:42;1.90;;;0.73;;
14294;SDS011;7231;59.370;18.016;2023-02-25T15:48:28;3.83;;;0.60;;
14294;SDS011;7231;59.370;18.016;2023-02-25T15:51:00;3.43;;;0.80;;
14294;SDS011;7231;59.370;18.016;2023-02-25T15:53:37;3.50;;;0.70;;
14294;SDS011;7231;59.370;18.016;2023-02-25T16:05:18;4.37;;;1.03;;
14294;SDS011;7231;59.370;18.016;2023-02-25T16:07:57;5.57;;;1.83;;
14294;SDS011;7231;59.370;18.016;2023-02-25T16:10:37;4.30;;;1.00;;
14294;SDS011;7231;59.370;18.016;2023-02-25T16:13:11;4.73;;;0.93;;
14294;SDS011;7231;59.370;18.016;2023-02-25T16:15:42;3.47;;;0.67;;
14294;SDS011;7231;59.370;18.016;2023-02-25T16:18:15;2.53;;;0.70;;
14294;SDS011;7231;59.370;18.016;2023-02-25T16:20:51;2.80;;;1.33;;
14294;SDS011;7231;59.370;18.016;2023-02-25T16:23:24;6.40;;;1.07;;